sensor_id;sensor_type;location;lat;lon;timestamp;P1;durP1;ratioP1;P2;durP2;ratioP2
22774;SDS011;11554;51.106;3.684;2024-03-23T00:55:00;13.00;;;5.00;;
22774;SDS011;11554;51.106;3.684;2024-03-23T01:00:00;16.80;;;5.60;;
22774;SDS011;11554;51.106;3.684;2024-03-23T01:05:00;16.80;;;5.60;;
22774;SDS011;11554;51.106;3.684;2024-03-23T01:10:00;17.60;;;5.60;;
22774;SDS011;11554;51.106;3.684;2024-03-23T01:15:00;17.60;;;5.60;;
22774;SDS011;11554;51.106;3.684;2024-03-23T01:20:00;15.80;;;5.30;;
22774;SDS011;11554;51.106;3.684;2024-03-23T01:25:00;15.80;;;5.30;;
22774;SDS011;11554;51.106;3.684;2024-03-23T01:30:00;14.40;;;4.90;;
22774;SDS011;11554;51.106;3.684;2024-03-23T01:35:00;14.40;;;4.90;;
22774;SDS011;11554;51.106;3.684;2024-03-23T01:40:00;15.30;;;5.60;;
22774;SDS011;11554;51.106;3.684;2024-03-23T01:45:00;15.30;;;5.60;;
22774;SDS011;11554;51.106;3.684;2024-03-23T01:50:00;17.50;;;5.30;;
22774;SDS011;11554;51.106;3.684;2024-03-23T01:55:00;17.50;;;5.30;;
22774;SDS011;11554;51.106;3.684;2024-03-23T02:00:00;17.50;;;5.60;;
22774;SDS011;11554;51.106;3.684;2024-03-23T02:05:00;17.50;;;5.60;;
22774;SDS011;11554;51.106;3.684;2024-03-23T02:10:00;15.80;;;4.70;;
22774;SDS011;11554;51.106;3.684;2024-03-23T02:15:00;15.80;;;4.70;;
22774;SDS011;11554;51.106;3.684;2024-03-23T02:20:00;15.70;;;4.40;;
22774;SDS011;11554;51.106;3.684;2024-03-23T02:25:00;15.70;;;4.40;;
22774;SDS011;11554;51.106;3.684;2024-03-23T02:30:01;15.90;;;3.80;;
22774;SDS011;11554;51.106;3.684;2024-03-23T02:35:00;15.90;;;3.80;;
22774;SDS011;11554;51.106;3.684;2024-03-23T02:40:00;13.20;;;3.60;;
22774;SDS011;11554;51.106;3.684;2024-03-23T02:45:00;13.20;;;3.60;;
22774;SDS011;11554;51.106;3.684;2024-03-23T02:50:00;10.40;;;3.40;;
22774;SDS011;11554;51.106;3.684;2024-03-23T02:55:00;10.40;;;3.40;;
22774;SDS011;11554;51.106;3.684;2024-03-23T03:00:00;12.30;;;3.00;;
22774;SDS011;11554;51.106;3.684;2024-03-23T03:05:00;12.30;;;3.00;;
22774;SDS011;11554;51.106;3.684;2024-03-23T03:10:00;13.50;;;3.00;;
22774;SDS011;11554;51.106;3.684;2024-03-23T03:15:00;13.50;;;3.00;;
22774;SDS011;11554;51.106;3.684;2024-03-23T03:20:00;11.60;;;3.10;;
22774;SDS011;11554;51.106;3.684;2024-03-23T03:25:00;11.60;;;3.10;;
22774;SDS011;11554;51.106;3.684;2024-03-23T03:30:01;15.10;;;3.10;;
22774;SDS011;11554;51.106;3.684;2024-03-23T03:35:00;15.10;;;3.10;;
22774;SDS011;11554;51.106;3.684;2024-03-23T03:40:00;12.70;;;3.10;;
22774;SDS011;11554;51.106;3.684;2024-03-23T03:45:00;12.70;;;3.10;;
22774;SDS011;11554;51.106;3.684;2024-03-23T03:50:00;13.80;;;3.10;;
22774;SDS011;11554;51.106;3.684;2024-03-23T03:55:02;13.80;;;3.10;;
22774;SDS011;11554;51.106;3.684;2024-03-23T04:00:00;9.40;;;2.60;;
22774;SDS011;11554;51.106;3.684;2024-03-23T04:05:00;9.40;;;2.60;;
22774;SDS011;11554;51.106;3.684;2024-03-23T04:10:00;15.90;;;2.70;;
22774;SDS011;11554;51.106;3.684;2024-03-23T04:15:00;15.90;;;2.70;;
22774;SDS011;11554;51.106;3.684;2024-03-23T04:20:01;12.90;;;2.80;;
22774;SDS011;11554;51.106;3.684;2024-03-23T04:25:00;12.90;;;2.80;;
22774;SDS011;11554;51.106;3.684;2024-03-23T04:30:01;11.30;;;2.50;;
22774;SDS011;11554;51.106;3.684;2024-03-23T04:35:00;11.30;;;2.50;;
22774;SDS011;11554;51.106;3.684;2024-03-23T04:40:01;12.60;;;2.10;;
22774;SDS011;11554;51.106;3.684;2024-03-23T04:45:00;12.60;;;2.10;;
22774;SDS011;11554;51.106;3.684;2024-03-23T04:50:01;11.70;;;2.50;;
22774;SDS011;11554;51.106;3.684;2024-03-23T04:55:00;11.70;;;2.50;;
22774;SDS011;11554;51.106;3.684;2024-03-23T05:00:00;14.00;;;2.80;;
22774;SDS011;11554;51.106;3.684;2024-03-23T05:05:00;14.00;;;2.80;;
22774;SDS011;11554;51.106;3.684;2024-03-23T05:10:00;13.60;;;2.30;;
22774;SDS011;11554;51.106;3.684;2024-03-23T05:15:00;13.60;;;2.30;;
22774;SDS011;11554;51.106;3.684;2024-03-23T05:20:00;12.00;;;2.00;;
22774;SDS011;11554;51.106;3.684;2024-03-23T05:25:00;12.00;;;2.00;;
22774;SDS011;11554;51.106;3.684;2024-03-23T05:30:00;14.50;;;2.20;;
22774;SDS011;11554;51.106;3.684;2024-03-23T05:35:00;14.50;;;2.20;;
22774;SDS011;11554;51.106;3.684;2024-03-23T05:40:00;10.70;;;1.90;;
22774;SDS011;11554;51.106;3.684;2024-03-23T05:45:00;10.70;;;1.90;;
22774;SDS011;11554;51.106;3.684;2024-03-23T05:50:00;13.10;;;2.00;;
22774;SDS011;11554;51.106;3.684;2024-03-23T05:55:00;13.10;;;2.00;;
22774;SDS011;11554;51.106;3.684;2024-03-23T06:00:00;10.00;;;2.00;;
22774;SDS011;11554;51.106;3.684;2024-03-23T06:05:00;10.00;;;2.00;;
22774;SDS011;11554;51.106;3.684;2024-03-23T06:10:00;13.00;;;1.90;;
22774;SDS011;11554;51.106;3.684;2024-03-23T06:15:00;13.00;;;1.90;;
22774;SDS011;11554;51.106;3.684;2024-03-23T06:20:00;10.00;;;1.90;;
22774;SDS011;11554;51.106;3.684;2024-03-23T06:25:00;10.00;;;1.90;;
22774;SDS011;11554;51.106;3.684;2024-03-23T06:30:00;13.70;;;2.00;;
22774;SDS011;11554;51.106;3.684;2024-03-23T06:35:00;13.70;;;2.00;;
22774;SDS011;11554;51.106;3.684;2024-03-23T06:40:00;12.30;;;2.60;;
22774;SDS011;11554;51.106;3.684;2024-03-23T06:45:00;12.30;;;2.60;;
22774;SDS011;11554;51.106;3.684;2024-03-23T06:50:01;13.20;;;2.40;;
22774;SDS011;11554;51.106;3.684;2024-03-23T06:55:00;13.20;;;2.40;;
22774;SDS011;11554;51.106;3.684;2024-03-23T07:00:00;11.80;;;2.30;;
22774;SDS011;11554;51.106;3.684;2024-03-23T07:05:00;11.80;;;2.30;;
22774;SDS011;11554;51.106;3.684;2024-03-23T07:10:00;12.70;;;2.30;;
22774;SDS011;11554;51.106;3.684;2024-03-23T07:15:00;12.70;;;2.30;;
22774;SDS011;11554;51.106;3.684;2024-03-23T07:20:00;11.30;;;3.00;;
22774;SDS011;11554;51.106;3.684;2024-03-23T07:25:01;11.30;;;3.00;;
22774;SDS011;11554;51.106;3.684;2024-03-23T07:30:01;12.30;;;2.60;;
22774;SDS011;11554;51.106;3.684;2024-03-23T07:35:00;12.30;;;2.60;;
22774;SDS011;11554;51.106;3.684;2024-03-23T07:40:00;13.60;;;2.70;;
22774;SDS011;11554;51.106;3.684;2024-03-23T07:45:00;13.60;;;2.70;;
22774;SDS011;11554;51.106;3.684;2024-03-23T07:50:00;10.90;;;2.00;;
22774;SDS011;11554;51.106;3.684;2024-03-23T07:55:00;10.90;;;2.00;;
22774;SDS011;11554;51.106;3.684;2024-03-23T08:00:00;11.10;;;2.30;;
22774;SDS011;11554;51.106;3.684;2024-03-23T08:05:00;11.10;;;2.30;;
22774;SDS011;11554;51.106;3.684;2024-03-23T08:10:00;12.90;;;2.50;;
22774;SDS011;11554;51.106;3.684;2024-03-23T08:15:00;12.90;;;2.50;;
22774;SDS011;11554;51.106;3.684;2024-03-23T08:20:00;15.40;;;2.00;;
22774;SDS011;11554;51.106;3.684;2024-03-23T08:25:00;15.40;;;2.00;;
22774;SDS011;11554;51.106;3.684;2024-03-23T08:30:00;9.90;;;1.40;;
22774;SDS011;11554;51.106;3.684;2024-03-23T08:35:00;9.90;;;1.40;;
22774;SDS011;11554;51.106;3.684;2024-03-23T08:40:00;7.90;;;1.70;;
22774;SDS011;11554;51.106;3.684;2024-03-23T08:45:00;7.90;;;1.70;;
22774;SDS011;11554;51.106;3.684;2024-03-23T08:50:00;8.10;;;1.50;;
22774;SDS011;11554;51.106;3.684;2024-03-23T08:55:00;8.10;;;1.50;;
22774;SDS011;11554;51.106;3.684;2024-03-23T09:00:00;8.60;;;1.80;;
22774;SDS011;11554;51.106;3.684;2024-03-23T09:05:00;8.60;;;1.80;;
22774;SDS011;11554;51.106;3.684;2024-03-23T09:10:00;12.00;;;2.40;;
22774;SDS011;11554;51.106;3.684;2024-03-23T09:15:00;12.00;;;2.40;;
22774;SDS011;11554;51.106;3.684;2024-03-23T09:20:00;7.00;;;1.10;;
22774;SDS011;11554;51.106;3.684;2024-03-23T09:25:00;7.00;;;1.10;;
22774;SDS011;11554;51.106;3.684;2024-03-23T09:30:00;8.00;;;1.70;;
22774;SDS011;11554;51.106;3.684;2024-03-23T09:35:00;8.00;;;1.70;;
22774;SDS011;11554;51.106;3.684;2024-03-23T09:40:00;9.30;;;1.80;;
22774;SDS011;11554;51.106;3.684;2024-03-23T09:45:01;9.30;;;1.80;;
22774;SDS011;11554;51.106;3.684;2024-03-23T09:50:01;7.30;;;1.70;;
22774;SDS011;11554;51.106;3.684;2024-03-23T09:55:00;7.30;;;1.70;;
22774;SDS011;11554;51.106;3.684;2024-03-23T10:00:00;9.30;;;1.60;;
22774;SDS011;11554;51.106;3.684;2024-03-23T10:05:01;9.30;;;1.60;;
22774;SDS011;11554;51.106;3.684;2024-03-23T10:10:10;8.70;;;1.60;;
22774;SDS011;11554;51.106;3.684;2024-03-23T10:15:00;8.70;;;1.60;;
22774;SDS011;11554;51.106;3.684;2024-03-23T10:20:00;6.50;;;1.20;;
22774;SDS011;11554;51.106;3.684;2024-03-23T10:25:07;6.50;;;1.20;;
22774;SDS011;11554;51.106;3.684;2024-03-23T10:30:08;9.70;;;1.60;;
22774;SDS011;11554;51.106;3.684;2024-03-23T10:40:03;11.50;;;1.80;;
22774;SDS011;11554;51.106;3.684;2024-03-23T10:45:00;11.50;;;1.80;;
22774;SDS011;11554;51.106;3.684;2024-03-23T10:50:00;8.50;;;2.10;;
22774;SDS011;11554;51.106;3.684;2024-03-23T10:55:04;8.50;;;2.10;;
22774;SDS011;11554;51.106;3.684;2024-03-23T11:00:02;4.80;;;1.10;;
22774;SDS011;11554;51.106;3.684;2024-03-23T11:05:00;4.80;;;1.10;;
22774;SDS011;11554;51.106;3.684;2024-03-23T11:10:00;7.80;;;1.70;;
22774;SDS011;11554;51.106;3.684;2024-03-23T11:15:02;7.80;;;1.70;;
22774;SDS011;11554;51.106;3.684;2024-03-23T11:20:01;11.30;;;2.30;;
22774;SDS011;11554;51.106;3.684;2024-03-23T11:25:00;11.30;;;2.30;;
22774;SDS011;11554;51.106;3.684;2024-03-23T11:30:09;8.50;;;2.70;;
22774;SDS011;11554;51.106;3.684;2024-03-23T11:35:00;8.50;;;2.70;;
22774;SDS011;11554;51.106;3.684;2024-03-23T11:40:00;6.50;;;2.40;;
22774;SDS011;11554;51.106;3.684;2024-03-23T11:45:07;6.50;;;2.40;;
22774;SDS011;11554;51.106;3.684;2024-03-23T11:50:00;6.20;;;1.60;;
22774;SDS011;11554;51.106;3.684;2024-03-23T11:55:03;6.20;;;1.60;;
22774;SDS011;11554;51.106;3.684;2024-03-23T12:00:00;4.10;;;0.80;;
22774;SDS011;11554;51.106;3.684;2024-03-23T12:10:03;8.30;;;1.90;;
22774;SDS011;11554;51.106;3.684;2024-03-23T12:15:02;8.30;;;1.90;;
22774;SDS011;11554;51.106;3.684;2024-03-23T12:20:00;9.90;;;2.30;;
22774;SDS011;11554;51.106;3.684;2024-03-23T12:25:00;9.90;;;2.30;;
22774;SDS011;11554;51.106;3.684;2024-03-23T12:30:00;8.90;;;2.50;;
22774;SDS011;11554;51.106;3.684;2024-03-23T12:35:00;8.90;;;2.50;;
22774;SDS011;11554;51.106;3.684;2024-03-23T12:40:00;6.50;;;1.50;;
22774;SDS011;11554;51.106;3.684;2024-03-23T12:45:00;6.50;;;1.50;;
22774;SDS011;11554;51.106;3.684;2024-03-23T12:50:00;5.00;;;1.20;;
22774;SDS011;11554;51.106;3.684;2024-03-23T12:55:00;5.00;;;1.20;;
22774;SDS011;11554;51.106;3.684;2024-03-23T13:00:00;4.50;;;0.90;;
22774;SDS011;11554;51.106;3.684;2024-03-23T13:05:00;4.50;;;0.90;;
22774;SDS011;11554;51.106;3.684;2024-03-23T13:10:00;5.60;;;1.20;;
22774;SDS011;11554;51.106;3.684;2024-03-23T13:15:01;5.60;;;1.20;;
22774;SDS011;11554;51.106;3.684;2024-03-23T13:20:00;4.90;;;1.50;;
22774;SDS011;11554;51.106;3.684;2024-03-23T13:25:00;4.90;;;1.50;;
22774;SDS011;11554;51.106;3.684;2024-03-23T13:30:00;7.80;;;1.60;;
22774;SDS011;11554;51.106;3.684;2024-03-23T13:35:00;7.80;;;1.60;;
22774;SDS011;11554;51.106;3.684;2024-03-23T13:40:00;7.90;;;1.90;;
22774;SDS011;11554;51.106;3.684;2024-03-23T13:45:00;7.90;;;1.90;;
22774;SDS011;11554;51.106;3.684;2024-03-23T13:50:00;5.60;;;1.50;;
22774;SDS011;11554;51.106;3.684;2024-03-23T13:55:00;5.60;;;1.50;;
22774;SDS011;11554;51.106;3.684;2024-03-23T14:00:00;6.20;;;1.80;;
22774;SDS011;11554;51.106;3.684;2024-03-23T14:05:01;6.20;;;1.80;;
22774;SDS011;11554;51.106;3.684;2024-03-23T14:10:02;6.70;;;1.80;;
22774;SDS011;11554;51.106;3.684;2024-03-23T14:15:00;6.70;;;1.80;;
22774;SDS011;11554;51.106;3.684;2024-03-23T14:20:00;5.50;;;1.40;;
22774;SDS011;11554;51.106;3.684;2024-03-23T14:25:00;5.50;;;1.40;;
22774;SDS011;11554;51.106;3.684;2024-03-23T14:30:00;5.00;;;1.70;;
22774;SDS011;11554;51.106;3.684;2024-03-23T14:35:00;5.00;;;1.70;;
22774;SDS011;11554;51.106;3.684;2024-03-23T14:40:00;6.10;;;1.60;;
22774;SDS011;11554;51.106;3.684;2024-03-23T14:45:00;6.10;;;1.60;;
22774;SDS011;11554;51.106;3.684;2024-03-23T14:50:00;6.30;;;1.50;;
22774;SDS011;11554;51.106;3.684;2024-03-23T14:55:00;6.30;;;1.50;;
22774;SDS011;11554;51.106;3.684;2024-03-23T15:00:00;7.50;;;1.30;;
22774;SDS011;11554;51.106;3.684;2024-03-23T15:05:00;7.50;;;1.30;;
22774;SDS011;11554;51.106;3.684;2024-03-23T15:10:00;6.40;;;1.40;;
22774;SDS011;11554;51.106;3.684;2024-03-23T15:15:00;6.40;;;1.40;;
22774;SDS011;11554;51.106;3.684;2024-03-23T15:20:00;6.80;;;1.80;;
22774;SDS011;11554;51.106;3.684;2024-03-23T15:25:00;6.80;;;1.80;;
22774;SDS011;11554;51.106;3.684;2024-03-23T15:30:00;6.90;;;2.10;;
22774;SDS011;11554;51.106;3.684;2024-03-23T15:35:00;6.90;;;2.10;;
22774;SDS011;11554;51.106;3.684;2024-03-23T15:40:00;9.00;;;1.60;;
22774;SDS011;11554;51.106;3.684;2024-03-23T15:45:00;9.00;;;1.60;;
22774;SDS011;11554;51.106;3.684;2024-03-23T15:50:00;8.50;;;2.50;;
22774;SDS011;11554;51.106;3.684;2024-03-23T15:55:00;8.50;;;2.50;;
22774;SDS011;11554;51.106;3.684;2024-03-23T16:00:00;4.20;;;1.60;;
22774;SDS011;11554;51.106;3.684;2024-03-23T16:05:00;4.20;;;1.60;;
22774;SDS011;11554;51.106;3.684;2024-03-23T16:10:00;5.70;;;1.70;;
22774;SDS011;11554;51.106;3.684;2024-03-23T16:15:00;5.70;;;1.70;;
22774;SDS011;11554;51.106;3.684;2024-03-23T16:20:02;6.60;;;1.90;;
22774;SDS011;11554;51.106;3.684;2024-03-23T16:25:00;6.60;;;1.90;;
22774;SDS011;11554;51.106;3.684;2024-03-23T16:30:00;5.50;;;1.40;;
22774;SDS011;11554;51.106;3.684;2024-03-23T16:35:00;5.50;;;1.40;;
22774;SDS011;11554;51.106;3.684;2024-03-23T16:40:00;4.40;;;1.00;;
22774;SDS011;11554;51.106;3.684;2024-03-23T16:45:00;4.40;;;1.00;;
22774;SDS011;11554;51.106;3.684;2024-03-23T16:50:00;4.40;;;1.10;;
22774;SDS011;11554;51.106;3.684;2024-03-23T16:55:00;4.40;;;1.10;;
22774;SDS011;11554;51.106;3.684;2024-03-23T17:00:00;6.10;;;1.40;;
22774;SDS011;11554;51.106;3.684;2024-03-23T17:05:00;6.10;;;1.40;;
22774;SDS011;11554;51.106;3.684;2024-03-23T17:10:00;3.90;;;1.20;;
22774;SDS011;11554;51.106;3.684;2024-03-23T17:15:04;3.90;;;1.20;;
22774;SDS011;11554;51.106;3.684;2024-03-23T17:20:01;5.20;;;1.70;;
22774;SDS011;11554;51.106;3.684;2024-03-23T17:25:00;5.20;;;1.70;;
22774;SDS011;11554;51.106;3.684;2024-03-23T17:30:00;3.80;;;1.50;;
22774;SDS011;11554;51.106;3.684;2024-03-23T17:35:00;3.80;;;1.50;;
22774;SDS011;11554;51.106;3.684;2024-03-23T17:40:00;6.90;;;1.90;;
22774;SDS011;11554;51.106;3.684;2024-03-23T17:45:01;6.90;;;1.90;;
22774;SDS011;11554;51.106;3.684;2024-03-23T17:50:00;7.50;;;1.50;;
22774;SDS011;11554;51.106;3.684;2024-03-23T17:55:00;7.50;;;1.50;;
22774;SDS011;11554;51.106;3.684;2024-03-23T18:00:00;4.80;;;1.60;;
22774;SDS011;11554;51.106;3.684;2024-03-23T18:05:01;4.80;;;1.60;;
22774;SDS011;11554;51.106;3.684;2024-03-23T18:10:01;6.00;;;2.10;;
22774;SDS011;11554;51.106;3.684;2024-03-23T18:15:00;6.00;;;2.10;;
22774;SDS011;11554;51.106;3.684;2024-03-23T18:20:00;6.50;;;2.40;;
22774;SDS011;11554;51.106;3.684;2024-03-23T18:25:00;6.50;;;2.40;;
22774;SDS011;11554;51.106;3.684;2024-03-23T18:30:00;7.70;;;2.70;;
22774;SDS011;11554;51.106;3.684;2024-03-23T18:35:00;7.70;;;2.70;;
22774;SDS011;11554;51.106;3.684;2024-03-23T18:40:00;5.80;;;2.90;;
22774;SDS011;11554;51.106;3.684;2024-03-23T18:45:00;5.80;;;2.90;;
22774;SDS011;11554;51.106;3.684;2024-03-23T18:50:00;15.20;;;5.80;;
22774;SDS011;11554;51.106;3.684;2024-03-23T18:55:00;15.20;;;5.80;;
22774;SDS011;11554;51.106;3.684;2024-03-23T19:00:00;9.70;;;3.60;;
22774;SDS011;11554;51.106;3.684;2024-03-23T19:05:00;9.70;;;3.60;;
22774;SDS011;11554;51.106;3.684;2024-03-23T19:10:00;9.00;;;3.90;;
22774;SDS011;11554;51.106;3.684;2024-03-23T19:15:00;9.00;;;3.90;;
22774;SDS011;11554;51.106;3.684;2024-03-23T19:20:00;10.70;;;5.50;;
22774;SDS011;11554;51.106;3.684;2024-03-23T19:25:00;10.70;;;5.50;;
22774;SDS011;11554;51.106;3.684;2024-03-23T19:30:00;6.30;;;3.50;;
22774;SDS011;11554;51.106;3.684;2024-03-23T19:35:01;6.30;;;3.50;;
22774;SDS011;11554;51.106;3.684;2024-03-23T19:40:00;10.70;;;3.50;;
22774;SDS011;11554;51.106;3.684;2024-03-23T19:45:00;10.70;;;3.50;;
22774;SDS011;11554;51.106;3.684;2024-03-23T19:50:00;9.90;;;2.80;;
22774;SDS011;11554;51.106;3.684;2024-03-23T19:55:00;9.90;;;2.80;;
22774;SDS011;11554;51.106;3.684;2024-03-23T20:00:00;8.10;;;2.30;;
22774;SDS011;11554;51.106;3.684;2024-03-23T20:05:00;8.10;;;2.30;;
22774;SDS011;11554;51.106;3.684;2024-03-23T20:10:00;5.70;;;2.00;;
22774;SDS011;11554;51.106;3.684;2024-03-23T20:15:00;5.70;;;2.00;;
22774;SDS011;11554;51.106;3.684;2024-03-23T20:20:00;4.60;;;1.80;;
22774;SDS011;11554;51.106;3.684;2024-03-23T20:25:00;4.60;;;1.80;;
22774;SDS011;11554;51.106;3.684;2024-03-23T20:30:00;6.90;;;1.90;;
22774;SDS011;11554;51.106;3.684;2024-03-23T20:35:00;6.90;;;1.90;;
22774;SDS011;11554;51.106;3.684;2024-03-23T20:40:00;4.40;;;2.00;;
22774;SDS011;11554;51.106;3.684;2024-03-23T20:45:00;4.40;;;2.00;;
22774;SDS011;11554;51.106;3.684;2024-03-23T20:50:00;5.80;;;2.10;;
22774;SDS011;11554;51.106;3.684;2024-03-23T20:55:00;5.80;;;2.10;;
22774;SDS011;11554;51.106;3.684;2024-03-23T21:00:00;5.50;;;2.20;;
22774;SDS011;11554;51.106;3.684;2024-03-23T21:05:00;5.50;;;2.20;;
22774;SDS011;11554;51.106;3.684;2024-03-23T21:10:00;5.90;;;2.20;;
22774;SDS011;11554;51.106;3.684;2024-03-23T21:15:00;5.90;;;2.20;;
22774;SDS011;11554;51.106;3.684;2024-03-23T21:20:00;6.50;;;2.50;;
22774;SDS011;11554;51.106;3.684;2024-03-23T21:25:00;6.50;;;2.50;;
22774;SDS011;11554;51.106;3.684;2024-03-23T21:30:00;5.40;;;2.10;;
22774;SDS011;11554;51.106;3.684;2024-03-23T21:35:00;5.40;;;2.10;;
22774;SDS011;11554;51.106;3.684;2024-03-23T21:40:00;5.50;;;2.10;;
22774;SDS011;11554;51.106;3.684;2024-03-23T21:45:01;5.50;;;2.10;;
22774;SDS011;11554;51.106;3.684;2024-03-23T21:50:00;4.80;;;1.90;;
22774;SDS011;11554;51.106;3.684;2024-03-23T21:55:00;4.80;;;1.90;;
22774;SDS011;11554;51.106;3.684;2024-03-23T22:00:00;5.80;;;1.90;;
22774;SDS011;11554;51.106;3.684;2024-03-23T22:05:00;5.80;;;1.90;;
22774;SDS011;11554;51.106;3.684;2024-03-23T22:10:00;7.80;;;1.90;;
22774;SDS011;11554;51.106;3.684;2024-03-23T22:15:00;7.80;;;1.90;;
22774;SDS011;11554;51.106;3.684;2024-03-23T22:20:00;5.10;;;1.90;;
22774;SDS011;11554;51.106;3.684;2024-03-23T22:25:00;5.10;;;1.90;;
22774;SDS011;11554;51.106;3.684;2024-03-23T22:30:00;4.50;;;2.00;;
22774;SDS011;11554;51.106;3.684;2024-03-23T22:35:00;4.50;;;2.00;;
22774;SDS011;11554;51.106;3.684;2024-03-23T22:40:01;7.40;;;2.10;;
22774;SDS011;11554;51.106;3.684;2024-03-23T22:45:00;7.40;;;2.10;;
22774;SDS011;11554;51.106;3.684;2024-03-23T22:50:00;5.80;;;2.10;;
22774;SDS011;11554;51.106;3.684;2024-03-23T22:55:00;5.80;;;2.10;;
22774;SDS011;11554;51.106;3.684;2024-03-23T23:00:00;6.20;;;2.10;;
22774;SDS011;11554;51.106;3.684;2024-03-23T23:05:00;6.20;;;2.10;;
22774;SDS011;11554;51.106;3.684;2024-03-23T23:10:00;8.00;;;2.30;;
22774;SDS011;11554;51.106;3.684;2024-03-23T23:15:00;8.00;;;2.30;;
22774;SDS011;11554;51.106;3.684;2024-03-23T23:20:00;6.70;;;1.60;;
22774;SDS011;11554;51.106;3.684;2024-03-23T23:25:00;6.70;;;1.60;;
22774;SDS011;11554;51.106;3.684;2024-03-23T23:30:00;6.10;;;1.90;;
22774;SDS011;11554;51.106;3.684;2024-03-23T23:35:01;6.10;;;1.90;;
22774;SDS011;11554;51.106;3.684;2024-03-23T23:40:00;6.90;;;2.00;;
22774;SDS011;11554;51.106;3.684;2024-03-23T23:45:00;6.90;;;2.00;;
22774;SDS011;11554;51.106;3.684;2024-03-23T23:50:00;7.50;;;2.10;;
22774;SDS011;11554;51.106;3.684;2024-03-23T23:55:00;7.50;;;2.10;;
